createdAt,value
2022-12-22T00:02:33.173Z,8.82
2022-12-22T00:05:18.224Z,9.52
2022-12-22T00:08:03.400Z,8.65
2022-12-22T00:10:49.989Z,8.45
2022-12-22T00:13:35.129Z,8.40
2022-12-22T00:16:20.404Z,9.68
2022-12-22T00:19:05.666Z,8.45
2022-12-22T00:21:50.936Z,7.95
2022-12-22T00:24:36.287Z,7.70
2022-12-22T00:27:23.011Z,7.68
2022-12-22T00:30:08.390Z,7.60
2022-12-22T00:32:55.886Z,7.63
2022-12-22T00:35:43.580Z,7.60
2022-12-22T00:38:32.589Z,7.60
2022-12-22T00:41:17.945Z,7.32
2022-12-22T00:44:04.401Z,7.78
2022-12-22T00:46:50.593Z,7.82
2022-12-22T00:49:36.359Z,8.23
2022-12-22T00:52:22.114Z,8.60
2022-12-22T00:55:08.029Z,8.95
2022-12-22T00:57:53.439Z,9.23
2022-12-22T01:00:40.421Z,8.52
2022-12-22T01:03:27.990Z,9.05
2022-12-22T01:06:13.322Z,9.93
2022-12-22T01:08:58.708Z,10.27
2022-12-22T01:11:45.175Z,9.23
2022-12-22T01:14:31.041Z,8.88
2022-12-22T01:17:17.518Z,8.50
2022-12-22T01:20:02.920Z,10.15
2022-12-22T01:22:48.118Z,8.93
2022-12-22T01:25:35.473Z,9.25
2022-12-22T01:28:21.328Z,9.45
2022-12-22T01:31:06.653Z,10.35
2022-12-22T01:33:53.613Z,9.23
2022-12-22T01:36:38.899Z,8.63
2022-12-22T01:39:24.261Z,8.88
2022-12-22T01:42:09.669Z,7.80
2022-12-22T01:44:55.113Z,9.05
2022-12-22T01:47:50.681Z,10.25
2022-12-22T01:50:40.322Z,8.70
2022-12-22T01:53:27.861Z,8.32
2022-12-22T01:56:13.118Z,8.10
2022-12-22T01:59:02.567Z,8.80
2022-12-22T02:01:48.707Z,8.02
2022-12-22T02:04:34.410Z,7.80
2022-12-22T02:07:28.518Z,8.27
2022-12-22T02:10:18.303Z,8.20
2022-12-22T02:13:12.222Z,8.10
2022-12-22T02:16:02.178Z,7.22
2022-12-22T02:18:50.273Z,6.95
2022-12-22T02:21:38.158Z,6.68
2022-12-22T02:24:35.715Z,7.50
2022-12-22T02:27:22.172Z,6.90
2022-12-22T02:30:10.638Z,6.65
2022-12-22T02:33:02.210Z,6.78
2022-12-22T02:35:57.741Z,6.80
2022-12-22T02:38:47.161Z,6.78
2022-12-22T02:41:35.407Z,6.85
2022-12-22T02:44:35.017Z,6.55
2022-12-22T02:47:26.560Z,7.15
2022-12-22T02:50:14.029Z,6.77
2022-12-22T02:53:00.950Z,6.60
2022-12-22T02:55:46.707Z,6.72
2022-12-22T02:58:33.026Z,6.65
2022-12-22T03:01:21.693Z,6.80
2022-12-22T03:04:06.912Z,7.05
2022-12-22T03:06:52.289Z,6.60
2022-12-22T03:09:37.624Z,7.40
2022-12-22T03:12:23.067Z,6.88
2022-12-22T03:15:08.303Z,7.50
2022-12-22T03:17:54.805Z,7.13
2022-12-22T03:20:40.106Z,7.22
2022-12-22T03:23:25.842Z,7.32
2022-12-22T03:25:56.485Z,7.22
2022-12-22T03:28:26.540Z,7.57
2022-12-22T03:30:56.152Z,7.93
2022-12-22T03:33:25.182Z,7.32
2022-12-22T03:35:52.781Z,7.57
2022-12-22T03:38:20.721Z,7.18
2022-12-22T03:40:48.366Z,6.97
2022-12-22T03:43:34.627Z,6.85
2022-12-22T03:46:20.314Z,7.43
2022-12-22T03:49:09.527Z,7.07
2022-12-22T03:51:38.413Z,7.63
2022-12-22T03:54:06.161Z,7.05
2022-12-22T03:56:34.075Z,7.30
2022-12-22T03:59:01.705Z,7.47
2022-12-22T04:01:29.457Z,7.00
2022-12-22T04:03:58.539Z,6.95
2022-12-22T04:06:26.129Z,7.43
2022-12-22T04:08:53.694Z,7.03
2022-12-22T04:11:39.105Z,6.82
2022-12-22T04:14:06.747Z,6.72
2022-12-22T04:16:34.651Z,7.32
2022-12-22T04:19:03.820Z,7.45
2022-12-22T04:21:31.449Z,6.22
2022-12-22T04:23:59.033Z,7.03
2022-12-22T04:26:26.753Z,6.75
2022-12-22T04:28:54.753Z,6.78
2022-12-22T04:31:22.890Z,6.57
2022-12-22T04:33:50.583Z,6.45
2022-12-22T04:36:20.087Z,6.70
2022-12-22T04:38:47.665Z,6.85
2022-12-22T04:41:15.299Z,6.57
2022-12-22T04:43:42.858Z,6.50
2022-12-22T04:46:10.470Z,6.82
2022-12-22T04:48:38.110Z,7.20
2022-12-22T04:51:06.020Z,7.50
2022-12-22T04:53:34.997Z,6.70
2022-12-22T04:56:04.099Z,6.50
2022-12-22T04:58:33.071Z,6.47
2022-12-22T05:01:10.147Z,7.47
2022-12-22T05:03:37.851Z,10.38
2022-12-22T05:06:06.030Z,9.43
2022-12-22T05:08:35.048Z,7.88
2022-12-22T05:11:02.846Z,7.47
2022-12-22T05:13:30.676Z,7.20
2022-12-22T05:16:04.366Z,7.93
2022-12-22T05:18:32.618Z,7.07
2022-12-22T05:21:00.197Z,6.70
2022-12-22T05:23:27.783Z,6.70
2022-12-22T05:25:56.733Z,6.80
2022-12-22T05:28:24.357Z,6.90
2022-12-22T05:30:51.988Z,7.15
2022-12-22T05:33:19.763Z,6.68
2022-12-22T05:35:47.379Z,7.00
2022-12-22T05:38:15.027Z,7.05
2022-12-22T05:40:42.601Z,6.40
2022-12-22T05:43:11.628Z,6.90
2022-12-22T05:45:39.217Z,7.13
2022-12-22T05:48:07.363Z,7.60
2022-12-22T05:50:34.968Z,7.05
2022-12-22T05:53:02.556Z,7.13
2022-12-22T05:55:30.174Z,7.13
2022-12-22T05:58:01.719Z,6.72
2022-12-22T06:00:31.769Z,7.05
2022-12-22T06:02:59.874Z,6.85
2022-12-22T06:05:27.465Z,7.00
2022-12-22T06:07:55.035Z,6.70
2022-12-22T06:10:22.643Z,6.57
2022-12-22T06:12:50.267Z,6.50
2022-12-22T06:15:18.032Z,6.85
2022-12-22T06:17:46.973Z,6.60
2022-12-22T06:20:15.256Z,6.72
2022-12-22T06:22:42.944Z,6.90
2022-12-22T06:25:17.675Z,7.07
2022-12-22T06:27:45.958Z,7.57
2022-12-22T06:30:14.223Z,6.65
2022-12-22T06:32:42.063Z,7.45
2022-12-22T06:35:11.876Z,6.85
2022-12-22T06:37:39.821Z,7.53
2022-12-22T06:40:08.638Z,6.80
2022-12-22T06:42:53.908Z,7.13
2022-12-22T06:45:21.612Z,7.45
2022-12-22T06:47:49.306Z,6.72
2022-12-22T06:50:18.457Z,6.50
2022-12-22T06:52:46.046Z,7.28
2022-12-22T06:55:13.656Z,7.03
2022-12-22T06:57:41.246Z,7.57
2022-12-22T07:00:10.131Z,7.40
2022-12-22T07:02:37.898Z,7.00
2022-12-22T07:05:06.186Z,7.10
2022-12-22T07:07:35.105Z,7.10
2022-12-22T07:10:02.936Z,6.43
2022-12-22T07:12:30.533Z,7.50
2022-12-22T07:14:58.141Z,7.05
2022-12-22T07:17:25.748Z,6.65
2022-12-22T07:19:53.312Z,7.72
2022-12-22T07:22:27.588Z,7.32
2022-12-22T07:24:58.883Z,7.57
2022-12-22T07:27:26.572Z,7.22
2022-12-22T07:29:54.183Z,7.57
2022-12-22T07:32:21.770Z,7.75
2022-12-22T07:34:49.333Z,7.47
2022-12-22T07:37:16.903Z,7.60
2022-12-22T07:39:44.527Z,7.50
2022-12-22T07:42:31.305Z,7.90
2022-12-22T07:44:58.907Z,7.65
2022-12-22T07:47:33.216Z,7.68
2022-12-22T07:50:20.512Z,7.07
2022-12-22T07:52:48.091Z,7.35
2022-12-22T07:55:15.774Z,7.32
2022-12-22T07:57:44.735Z,7.30
2022-12-22T08:00:13.782Z,7.03
2022-12-22T08:02:41.747Z,7.55
2022-12-22T08:05:10.711Z,7.90
2022-12-22T08:07:38.354Z,6.60
2022-12-22T08:10:06.538Z,6.53
2022-12-22T08:12:34.093Z,7.30
2022-12-22T08:15:03.148Z,7.05
2022-12-22T08:17:30.775Z,7.43
2022-12-22T08:19:58.443Z,7.07
2022-12-22T08:22:26.439Z,7.63
2022-12-22T08:24:54.760Z,7.45
2022-12-22T08:27:26.528Z,8.05
2022-12-22T08:29:57.560Z,8.25
2022-12-22T08:32:26.627Z,7.30
2022-12-22T08:34:54.882Z,7.63
2022-12-22T08:37:25.800Z,8.30
2022-12-22T08:39:55.558Z,7.13
2022-12-22T08:42:23.793Z,8.18
2022-12-22T08:44:53.327Z,7.53
2022-12-22T08:47:21.692Z,8.10
2022-12-22T08:49:51.077Z,7.90
2022-12-22T08:52:19.472Z,8.15
2022-12-22T08:54:47.716Z,7.55
2022-12-22T08:57:15.385Z,7.68
2022-12-22T08:59:43.011Z,8.00
2022-12-22T09:02:10.665Z,7.38
2022-12-22T09:04:38.269Z,7.93
2022-12-22T09:07:07.223Z,7.97
2022-12-22T09:09:35.721Z,7.70
2022-12-22T09:12:04.086Z,7.72
2022-12-22T09:14:32.771Z,8.63
2022-12-22T09:17:00.602Z,7.80
2022-12-22T09:19:28.472Z,8.50
2022-12-22T09:21:56.195Z,8.40
2022-12-22T09:24:25.202Z,7.75
2022-12-22T09:26:52.807Z,7.70
2022-12-22T09:29:20.469Z,8.35
2022-12-22T09:31:48.215Z,7.47
2022-12-22T09:34:18.380Z,7.80
2022-12-22T09:36:46.389Z,7.85
2022-12-22T09:39:14.742Z,8.20
2022-12-22T09:41:46.496Z,7.35
2022-12-22T09:44:21.370Z,7.78
2022-12-22T09:46:49.085Z,8.45
2022-12-22T09:49:17.941Z,7.55
2022-12-22T09:51:48.231Z,8.93
2022-12-22T09:54:16.066Z,8.07
2022-12-22T09:56:45.246Z,7.70
2022-12-22T09:59:14.131Z,8.65
2022-12-22T10:01:59.829Z,7.72
2022-12-22T10:04:37.307Z,8.20
2022-12-22T10:07:14.564Z,8.38
2022-12-22T10:09:51.264Z,8.25
2022-12-22T10:12:23.419Z,7.70
2022-12-22T10:14:53.152Z,8.63
2022-12-22T10:17:23.941Z,8.40
2022-12-22T10:19:53.182Z,8.73
2022-12-22T10:22:27.556Z,8.93
2022-12-22T10:24:55.670Z,7.68
2022-12-22T10:27:29.277Z,7.75
2022-12-22T10:30:21.468Z,8.82
2022-12-22T10:33:05.725Z,8.38
2022-12-22T10:35:54.802Z,7.90
2022-12-22T10:38:26.209Z,8.73
2022-12-22T10:41:01.762Z,8.27
2022-12-22T10:43:34.251Z,7.93
2022-12-22T10:46:02.601Z,8.20
2022-12-22T10:48:32.456Z,9.05
2022-12-22T10:51:00.993Z,8.20
2022-12-22T10:53:46.683Z,8.02
2022-12-22T10:56:24.198Z,7.68
2022-12-22T10:58:55.027Z,7.63
2022-12-22T11:01:28.712Z,7.93
2022-12-22T11:03:56.580Z,8.38
2022-12-22T11:06:24.294Z,7.70
2022-12-22T11:08:52.262Z,7.65
2022-12-22T11:11:33.386Z,8.25
2022-12-22T11:14:09.449Z,7.95
2022-12-22T11:16:42.559Z,7.85
2022-12-22T11:19:29.574Z,7.85
2022-12-22T11:22:01.747Z,8.07
2022-12-22T11:27:08.723Z,8.13
2022-12-22T11:30:02.762Z,8.32
2022-12-22T11:32:47.781Z,8.25
2022-12-22T11:35:20.705Z,8.10
2022-12-22T11:37:51.511Z,8.27
2022-12-22T11:40:28.396Z,7.85
2022-12-22T11:43:19.268Z,8.27
2022-12-22T11:46:01.902Z,8.30
2022-12-22T11:48:51.597Z,8.43
2022-12-22T11:51:31.801Z,7.80
2022-12-22T11:54:11.881Z,8.60
2022-12-22T11:56:41.721Z,8.75
2022-12-22T11:59:21.249Z,8.57
2022-12-22T12:02:19.129Z,8.40
2022-12-22T12:05:22.011Z,8.40
2022-12-22T12:07:52.314Z,8.63
2022-12-22T12:10:25.356Z,8.70
2022-12-22T12:12:59.833Z,8.27
2022-12-22T12:15:32.250Z,8.60
2022-12-22T12:18:27.711Z,8.20
2022-12-22T12:21:02.264Z,8.65
2022-12-22T12:23:53.705Z,8.00
2022-12-22T12:26:24.877Z,8.20
2022-12-22T12:29:02.577Z,8.02
2022-12-22T12:31:33.914Z,8.00
2022-12-22T12:34:03.319Z,7.90
2022-12-22T12:36:33.073Z,8.20
2022-12-22T12:39:07.972Z,9.82
2022-12-22T12:41:42.146Z,8.43
2022-12-22T12:44:13.528Z,7.93
2022-12-22T12:47:07.999Z,8.25
2022-12-22T12:50:21.286Z,8.98
2022-12-22T12:53:07.905Z,8.35
2022-12-22T12:55:52.893Z,8.50
2022-12-22T12:58:49.106Z,7.57
2022-12-22T13:01:56.123Z,7.72
2022-12-22T13:05:10.509Z,8.38
2022-12-22T13:08:08.657Z,8.27
2022-12-22T13:10:38.591Z,9.55
2022-12-22T13:13:06.593Z,8.85
2022-12-22T13:15:35.590Z,8.20
2022-12-22T13:18:04.171Z,8.95
2022-12-22T13:20:34.949Z,8.63
2022-12-22T13:23:05.258Z,7.82
2022-12-22T13:25:42.506Z,8.30
2022-12-22T13:28:16.093Z,8.95
2022-12-22T13:30:47.408Z,8.23
2022-12-22T13:33:17.360Z,8.57
2022-12-22T13:35:49.240Z,8.48
2022-12-22T13:38:29.139Z,8.55
2022-12-22T13:40:58.860Z,9.02
2022-12-22T13:43:28.084Z,9.13
2022-12-22T13:45:56.822Z,8.68
2022-12-22T13:48:29.019Z,8.55
2022-12-22T13:56:23.775Z,8.30
2022-12-22T13:58:54.642Z,8.60
2022-12-22T14:01:22.267Z,9.23
2022-12-22T14:04:01.358Z,9.50
2022-12-22T14:06:31.883Z,8.85
2022-12-22T14:09:14.349Z,8.40
2022-12-22T14:11:51.072Z,8.75
2022-12-22T14:14:23.402Z,8.95
2022-12-22T14:16:52.524Z,9.27
2022-12-22T14:19:21.708Z,8.68
2022-12-22T14:21:52.176Z,9.30
2022-12-22T14:24:22.754Z,9.98
2022-12-22T14:26:52.144Z,9.77
2022-12-22T14:29:22.554Z,9.50
2022-12-22T14:31:57.335Z,9.50
2022-12-22T14:34:26.814Z,8.70
2022-12-22T14:36:54.488Z,8.70
2022-12-22T14:39:23.870Z,10.02
2022-12-22T14:41:54.432Z,9.55
2022-12-22T14:44:23.871Z,9.88
2022-12-22T14:47:06.552Z,8.82
2022-12-22T14:49:34.532Z,9.15
2022-12-22T14:52:07.764Z,9.05
2022-12-22T14:54:35.570Z,8.57
2022-12-22T14:57:15.725Z,8.35
2022-12-22T14:59:59.418Z,9.07
2022-12-22T15:02:35.020Z,8.55
2022-12-22T15:05:17.797Z,8.68
2022-12-22T15:08:07.472Z,8.68
2022-12-22T15:10:39.205Z,8.70
2022-12-22T15:13:13.531Z,8.77
2022-12-22T15:15:41.121Z,9.57
2022-12-22T15:18:13.665Z,8.85
2022-12-22T15:20:41.398Z,9.57
2022-12-22T15:23:12.698Z,8.80
2022-12-22T15:25:40.406Z,8.80
2022-12-22T15:28:09.471Z,8.90
2022-12-22T15:30:37.320Z,8.38
2022-12-22T15:33:05.249Z,8.77
2022-12-22T15:35:34.202Z,8.27
2022-12-22T15:38:02.444Z,8.65
2022-12-22T15:40:30.142Z,8.52
2022-12-22T15:42:57.739Z,8.18
2022-12-22T15:45:26.815Z,10.57
2022-12-22T15:47:55.618Z,8.07
2022-12-22T15:50:25.164Z,9.10
2022-12-22T15:52:54.215Z,8.85
2022-12-22T15:55:22.312Z,8.10
2022-12-22T15:57:51.159Z,8.25
2022-12-22T16:00:20.385Z,8.13
2022-12-22T16:02:49.739Z,7.90
2022-12-22T16:05:18.051Z,8.07
2022-12-22T16:07:46.030Z,8.20
2022-12-22T16:10:23.019Z,8.27
2022-12-22T16:12:54.578Z,8.60
2022-12-22T16:15:22.952Z,8.45
2022-12-22T16:17:53.040Z,7.55
2022-12-22T16:20:21.071Z,8.30
2022-12-22T16:22:50.023Z,8.23
2022-12-22T16:25:19.335Z,8.40
2022-12-22T16:27:49.510Z,9.00
2022-12-22T16:30:21.203Z,8.88
2022-12-22T16:32:48.990Z,8.75
2022-12-22T16:35:20.737Z,8.15
2022-12-22T16:37:49.791Z,8.85
2022-12-22T16:40:19.093Z,9.48
2022-12-22T16:45:37.098Z,8.50
2022-12-22T16:48:07.331Z,8.68
2022-12-22T16:50:36.655Z,8.48
2022-12-22T16:53:06.325Z,8.30
2022-12-22T16:55:35.882Z,8.85
2022-12-22T16:58:12.714Z,8.45
2022-12-22T17:00:41.983Z,8.63
2022-12-22T17:03:14.797Z,9.18
2022-12-22T17:05:45.776Z,8.32
2022-12-22T17:08:21.105Z,8.13
2022-12-22T17:10:48.768Z,7.88
2022-12-22T17:13:16.781Z,8.07
2022-12-22T17:15:44.365Z,8.73
2022-12-22T17:18:16.801Z,9.45
2022-12-22T17:20:46.515Z,9.13
2022-12-22T17:23:27.400Z,13.35
2022-12-22T17:25:54.966Z,10.90
2022-12-22T17:28:22.586Z,8.68
2022-12-22T17:30:50.522Z,8.68
2022-12-22T17:33:18.557Z,8.13
2022-12-22T17:35:48.189Z,11.15
2022-12-22T17:38:16.856Z,7.85
2022-12-22T17:40:44.914Z,8.50
2022-12-22T17:43:14.837Z,10.98
2022-12-22T17:45:42.781Z,7.90
2022-12-22T17:48:10.370Z,8.60
2022-12-22T17:50:38.063Z,9.63
2022-12-22T17:53:07.365Z,9.15
2022-12-22T17:56:07.323Z,8.93
2022-12-22T17:58:22.790Z,8.15
2022-12-22T18:00:50.317Z,8.43
2022-12-22T18:03:18.156Z,8.02
2022-12-22T18:05:48.131Z,8.48
2022-12-22T18:08:19.964Z,8.63
2022-12-22T18:10:48.324Z,8.57
2022-12-22T18:13:18.340Z,8.43
2022-12-22T18:15:46.062Z,8.75
2022-12-22T18:18:14.952Z,7.55
2022-12-22T18:20:43.434Z,9.05
2022-12-22T18:23:16.550Z,8.35
2022-12-22T18:25:45.531Z,9.13
2022-12-22T18:28:15.602Z,8.43
2022-12-22T18:30:43.290Z,8.57
2022-12-22T18:33:10.910Z,8.05
2022-12-22T18:35:39.281Z,8.43
2022-12-22T18:38:07.521Z,7.90
2022-12-22T18:40:36.862Z,8.05
2022-12-22T18:43:10.283Z,8.52
2022-12-22T18:45:38.051Z,9.07
2022-12-22T18:48:05.946Z,7.97
2022-12-22T18:50:34.885Z,8.50
2022-12-22T18:53:04.662Z,8.32
2022-12-22T18:55:33.628Z,7.82
2022-12-22T18:58:01.341Z,8.85
2022-12-22T19:00:31.988Z,7.95
2022-12-22T19:03:01.088Z,7.97
2022-12-22T19:05:30.359Z,8.18
2022-12-22T19:07:58.840Z,10.43
2022-12-22T19:10:30.263Z,12.18
2022-12-22T19:12:58.271Z,11.02
2022-12-22T19:15:30.727Z,8.15
2022-12-22T19:17:58.564Z,8.32
2022-12-22T19:20:26.696Z,8.52
2022-12-22T19:22:54.277Z,8.60
2022-12-22T19:25:24.730Z,8.15
2022-12-22T19:27:53.847Z,8.27
2022-12-22T19:30:23.007Z,7.90
2022-12-22T19:32:56.459Z,8.50
2022-12-22T19:35:25.430Z,8.88
2022-12-22T19:37:54.073Z,8.57
2022-12-22T19:40:23.475Z,8.13
2022-12-22T19:42:52.972Z,7.93
2022-12-22T19:45:22.398Z,8.00
2022-12-22T19:47:51.758Z,8.00
2022-12-22T19:50:20.787Z,8.40
2022-12-22T19:52:48.335Z,8.25
2022-12-22T19:55:16.327Z,8.05
2022-12-22T19:57:44.712Z,8.40
2022-12-22T20:00:17.843Z,7.90
2022-12-22T20:02:46.120Z,8.13
2022-12-22T20:05:30.271Z,7.78
2022-12-22T20:08:00.237Z,8.70
2022-12-22T20:10:29.396Z,8.18
2022-12-22T20:12:58.912Z,8.25
2022-12-22T20:15:28.051Z,8.02
2022-12-22T20:17:57.441Z,8.20
2022-12-22T20:20:29.824Z,8.43
2022-12-22T20:22:58.520Z,8.70
2022-12-22T20:25:27.980Z,8.18
2022-12-22T20:27:56.814Z,8.10
2022-12-22T20:30:26.394Z,9.05
2022-12-22T20:32:54.517Z,7.68
2022-12-22T20:35:22.406Z,7.97
2022-12-22T20:37:51.466Z,8.18
2022-12-22T20:40:24.726Z,7.65
2022-12-22T20:42:52.897Z,8.00
2022-12-22T20:45:22.079Z,7.80
2022-12-22T20:47:50.291Z,9.48
2022-12-22T20:50:20.692Z,7.97
2022-12-22T20:52:48.720Z,7.68
2022-12-22T20:55:19.184Z,8.50
2022-12-22T20:57:47.337Z,8.23
2022-12-22T21:00:20.552Z,7.93
2022-12-22T21:02:48.214Z,8.20
2022-12-22T21:05:16.018Z,10.00
2022-12-22T21:07:44.934Z,8.27
2022-12-22T21:10:18.519Z,7.05
2022-12-22T21:12:46.277Z,7.70
2022-12-22T21:15:19.054Z,8.13
2022-12-22T21:17:49.040Z,7.40
2022-12-22T21:20:21.112Z,7.75
2022-12-22T21:22:48.727Z,8.07
2022-12-22T21:25:17.849Z,8.07
2022-12-22T21:27:47.904Z,8.50
2022-12-22T21:30:18.113Z,7.82
2022-12-22T21:32:46.219Z,7.78
2022-12-22T21:35:15.465Z,7.80
2022-12-22T21:37:44.764Z,8.07
2022-12-22T21:40:20.299Z,7.60
2022-12-22T21:42:47.950Z,8.05
2022-12-22T21:45:16.786Z,7.63
2022-12-22T21:47:44.381Z,8.82
2022-12-22T21:50:19.611Z,11.05
2022-12-22T21:52:50.203Z,8.02
2022-12-22T21:55:25.647Z,7.88
2022-12-22T21:57:53.704Z,7.88
2022-12-22T22:00:22.378Z,7.90
2022-12-22T22:02:50.667Z,7.40
2022-12-22T22:05:27.184Z,7.85
2022-12-22T22:07:55.085Z,7.45
2022-12-22T22:10:26.020Z,7.40
2022-12-22T22:12:54.115Z,7.10
2022-12-22T22:15:23.879Z,8.15
2022-12-22T22:17:51.914Z,7.53
2022-12-22T22:20:21.155Z,9.40
2022-12-22T22:22:50.590Z,7.03
2022-12-22T22:25:19.587Z,7.30
2022-12-22T22:27:49.027Z,7.43
2022-12-22T22:30:18.334Z,7.28
2022-12-22T22:32:45.955Z,7.45
2022-12-22T22:35:14.890Z,7.40
2022-12-22T22:37:42.592Z,7.45
2022-12-22T22:40:12.523Z,7.97
2022-12-22T22:42:40.175Z,7.40
2022-12-22T22:45:11.312Z,7.00
2022-12-22T22:47:38.875Z,7.72
2022-12-22T22:50:08.821Z,7.45
2022-12-22T22:52:36.642Z,7.15
2022-12-22T22:55:04.428Z,6.70
2022-12-22T22:57:32.032Z,7.75
2022-12-22T22:59:59.578Z,7.43
2022-12-22T23:02:28.672Z,7.50
2022-12-22T23:04:56.364Z,7.05
2022-12-22T23:07:24.010Z,7.00
2022-12-22T23:09:51.573Z,7.35
2022-12-22T23:12:19.165Z,6.93
2022-12-22T23:14:46.750Z,7.18
2022-12-22T23:17:14.370Z,7.70
2022-12-22T23:19:43.351Z,7.70
2022-12-22T23:22:10.938Z,6.93
2022-12-22T23:24:38.685Z,7.05
2022-12-22T23:27:06.229Z,7.82
2022-12-22T23:29:33.843Z,7.63
2022-12-22T23:32:01.502Z,7.30
2022-12-22T23:34:29.159Z,7.60
2022-12-22T23:36:58.092Z,7.43
2022-12-22T23:39:25.815Z,8.52
2022-12-22T23:41:53.392Z,7.43
2022-12-22T23:44:20.993Z,7.45
2022-12-22T23:46:48.690Z,7.47
2022-12-22T23:49:16.283Z,7.85
2022-12-22T23:51:43.805Z,7.28
2022-12-22T23:54:12.756Z,7.35
2022-12-22T23:56:40.337Z,7.53
2022-12-22T23:59:08.671Z,7.53
